MA34 weather

Moore Dogs Heliport
Carver, Massachusetts, United States

Public forecast

Using degrees Fahrenheit for public forecast. Weather courtesy of forecast.io.

Closest aviation weather report (METAR) to Moore Dogs Heliport

Closest report is Plymouth Municipal Airport, 3.5 nm (6.4 km) ESE. Retrieved 2020/02/17 05:52 UTC (30 minutes ago):

KPYM 170552Z AUTO 00000KT 10SM CLR M03/M04 A3010 RMK AO2 SLP193 T10331044 10017 21033 52005

Closest aviation forecast (TAF) to Moore Dogs Heliport

Closest forecast is Cape Cod Coast Guard Air Station, 20.4 nm (37.8 km) SE. Retrieved 2020/02/17 06:36 UTC (0 seconds ago):

TAF KFMH 170533Z 1706/1806 VRB03KT P6SM SCT250 FM170700 26006KT P6SM BKN100 FM171300 30005KT P6SM FEW250 FM171600 32010KT P6SM SKC FM172300 35006KT P6SM SKC FM180400 03005KT P6SM FEW250